Time;durP1;ratioP1;P1;durP2;ratioP2;P2;SDS_P1;SDS_P2;PMS_P1;PMS_P2;Temp;Humidity;BMP_temperature;BMP_pressure;BME280_temperature;BME280_humidity;BME280_pressure;Samples;Min_cycle;Max_cycle;Signal;HPM_P1;HPM_P2
2021/10/07 09:26:11;;;;;;;56.15;33.67;;;;;;;12.35;100.00;99925.13;4436647;77;22812;-83
2021/10/07 09:32:13;;;;;;;51.98;32.25;;;;;;;12.35;100.00;99927.08;4311004;80;37161;-83
2021/10/07 09:38:20;;;;;;;51.20;33.30;;;;;;;12.37;100.00;99920.65;4145156;83;21094;-83
2021/10/07 09:44:21;;;;;;;;;;;;;;;12.40;100.00;99918.55;4135486;84;21112;-84
2021/10/07 09:50:31;;;;;;;43.08;30.82;;;;;;;12.38;100.00;99923.03;4139626;84;20208;-83
2021/10/07 09:56:34;;;;;;;42.53;29.50;;;;;;;12.41;100.00;99933.84;4023555;83;32566;-83
2021/10/07 10:02:36;;;;;;;43.92;27.85;;;;;;;12.49;100.00;99935.57;4005160;86;21547;-81
2021/10/07 10:08:38;;;;;;;35.10;25.52;;;;;;;12.57;100.00;99936.69;4003267;86;21583;-83
2021/10/07 10:14:40;;;;;;;41.30;25.82;;;;;;;12.58;100.00;99940.24;4007574;86;21175;-82
2021/10/07 10:20:52;;;;;;;36.73;24.60;;;;;;;12.53;100.00;99934.47;4000578;86;21139;-83
2021/10/07 10:27:03;;;;;;;29.72;20.17;;;;;;;12.48;100.00;99940.86;4001199;86;21569;-83
2021/10/07 10:33:05;;;;;;;29.25;22.27;;;;;;;12.76;100.00;99923.50;4015619;86;21086;-84
2021/10/07 10:39:15;;;;;;;25.40;20.45;;;;;;;13.35;100.00;99915.44;4012847;86;21560;-83
2021/10/07 10:45:18;;;;;;;30.12;17.98;;;;;;;14.27;100.00;99910.53;4185233;83;29993;-82
2021/10/07 10:51:22;;;;;;;20.82;15.08;;;;;;;14.95;100.00;99921.02;4202482;83;21082;-82
2021/10/07 10:57:44;;;;;;;17.27;13.70;;;;;;;14.94;100.00;99924.97;4212235;83;21076;-82
2021/10/07 11:03:46;;;;;;;21.00;13.08;;;;;;;14.77;100.00;99921.47;4200179;83;21159;-82
2021/10/07 11:09:58;;;;;;;20.48;12.25;;;;;;;14.85;99.75;99915.63;4211865;83;21032;-82
2021/10/07 11:16:04;;;;;;;17.60;12.88;;;;;;;15.01;99.57;99920.30;4087814;84;21085;-84
2021/10/07 11:22:12;;;;;;;15.53;11.20;;;;;;;15.19;96.93;99912.16;4131424;84;21045;-83
2021/10/07 11:28:17;;;;;;;18.57;12.07;;;;;;;15.68;98.23;99912.47;4115570;84;21122;-82
2021/10/07 11:34:18;;;;;;;15.85;10.78;;;;;;;15.85;95.48;99917.29;4133924;84;21621;-83
2021/10/07 11:40:34;;;;;;;14.28;10.53;;;;;;;15.56;91.00;99909.48;4110032;84;21126;-81
2021/10/07 11:46:36;;;;;;;17.85;11.93;;;;;;;15.58;92.16;99904.95;4118797;84;21062;-83
2021/10/07 11:52:39;;;;;;;17.55;12.30;;;;;;;15.70;92.33;99901.84;4109177;84;21083;-82
2021/10/07 11:58:41;;;;;;;20.30;13.83;;;;;;;15.57;92.38;99900.59;4124455;83;21102;-82
2021/10/07 12:04:42;;;;;;;23.00;13.30;;;;;;;15.33;91.87;99914.41;4124059;83;21077;-84
2021/10/07 12:11:01;;;;;;;20.25;12.35;;;;;;;15.06;91.72;99913.63;4117276;84;21002;-82
2021/10/07 12:17:03;;;;;;;20.20;12.13;;;;;;;14.99;90.82;99915.73;4112014;84;21160;-82
2021/10/07 12:23:06;;;;;;;13.10;9.43;;;;;;;15.14;90.48;99920.78;4135497;84;21139;-82
2021/10/07 12:29:19;;;;;;;10.60;7.67;;;;;;;15.01;89.67;99916.16;4107194;85;21019;-83
2021/10/07 12:35:24;;;;;;;14.50;9.35;;;;;;;14.92;89.10;99914.32;4050861;86;21894;-82
2021/10/07 12:41:40;;;;;;;12.23;9.08;;;;;;;15.07;88.82;99911.06;4131731;83;21160;-84
2021/10/07 12:47:41;;;;;;;16.93;9.33;;;;;;;15.27;87.45;99920.09;4106448;85;21074;-82
2021/10/07 12:53:45;;;;;;;17.15;8.55;;;;;;;15.24;86.29;99934.64;4135303;84;21080;-81
2021/10/07 12:59:54;;;;;;;12.90;7.47;;;;;;;15.09;86.22;99948.13;4128654;84;21085;-82
2021/10/07 13:05:55;;;;;;;13.98;8.48;;;;;;;15.03;85.50;99946.91;4128992;84;21074;-82
2021/10/07 13:11:57;;;;;;;17.85;7.95;;;;;;;15.05;84.56;99947.30;4129074;84;21502;-82
2021/10/07 13:17:58;;;;;;;13.00;7.67;;;;;;;15.09;84.04;99959.16;4125720;84;21653;-84
2021/10/07 13:24:02;;;;;;;15.43;7.92;;;;;;;14.84;83.50;99959.53;4091298;84;21092;-83
2021/10/07 13:30:05;;;;;;;14.85;7.45;;;;;;;14.65;83.17;99951.47;3973558;87;21138;-82
2021/10/07 13:36:07;;;;;;;12.28;6.30;;;;;;;14.52;83.05;99955.66;4032850;86;21613;-81
2021/10/07 13:42:08;;;;;;;13.40;7.33;;;;;;;14.41;82.69;99961.64;4123480;84;21645;-82
2021/10/07 13:48:10;;;;;;;20.30;7.47;;;;;;;14.34;82.09;99961.58;4124847;84;21064;-83
2021/10/07 13:54:11;;;;;;;12.68;7.35;;;;;;;14.25;81.39;99975.42;4121738;84;21105;-84
2021/10/07 14:00:13;;;;;;;13.72;7.08;;;;;;;13.98;80.44;99980.95;4123828;84;21105;-82
2021/10/07 14:06:18;;;;;;;19.42;10.18;;;;;;;13.62;80.40;99986.36;4131462;84;21028;-82
2021/10/07 14:12:19;;;;;;;19.52;7.87;;;;;;;13.44;80.20;99999.03;4122826;84;21045;-82
2021/10/07 14:18:21;;;;;;;20.72;8.80;;;;;;;13.38;79.04;100005.45;4127873;84;21014;-82
2021/10/07 14:24:22;;;;;;;14.23;6.42;;;;;;;13.31;79.24;100015.55;4165177;83;21712;-82
2021/10/07 14:30:24;;;;;;;11.40;6.50;;;;;;;13.25;79.19;100007.41;4196748;83;21048;-83
2021/10/07 14:36:25;;;;;;;15.40;5.87;;;;;;;13.21;78.96;100014.20;4190769;83;21567;-82
2021/10/07 14:42:26;;;;;;;29.77;8.53;;;;;;;13.12;78.47;100013.67;4195947;83;21123;-83
2021/10/07 14:48:28;;;;;;;17.50;7.28;;;;;;;12.98;77.92;100016.14;4178599;83;21076;-81
2021/10/07 14:54:29;;;;;;;15.70;7.10;;;;;;;12.82;77.58;100020.95;4179310;83;21150;-81
2021/10/07 15:00:30;;;;;;;16.80;7.72;;;;;;;12.70;77.10;100019.72;4178890;82;21020;-82
2021/10/07 15:06:31;;;;;;;17.55;8.03;;;;;;;12.59;76.99;100016.78;4175160;83;21071;-82
2021/10/07 15:12:35;;;;;;;15.20;6.67;;;;;;;12.50;77.11;100019.54;4180139;83;21139;-82
2021/10/07 15:18:36;;;;;;;16.57;6.50;;;;;;;12.40;76.94;100018.17;4176694;83;21077;-83
2021/10/07 15:24:38;;;;;;;18.45;6.92;;;;;;;12.33;76.94;100024.91;4065118;83;25476;-82
2021/10/07 15:30:40;;;;;;;13.93;6.78;;;;;;;12.30;76.94;100029.75;3981881;88;21048;-83
2021/10/07 15:36:42;;;;;;;18.35;6.55;;;;;;;12.27;77.16;100037.91;4011369;87;21118;-82
2021/10/07 15:42:44;;;;;;;15.55;7.00;;;;;;;12.21;77.52;100048.39;4015594;86;21128;-82
2021/10/07 15:48:46;;;;;;;17.17;7.45;;;;;;;12.16;77.59;100054.73;3946722;89;21055;-82
2021/10/07 15:54:47;;;;;;;17.42;7.37;;;;;;;12.04;77.60;100054.27;4017931;86;21060;-83
2021/10/07 16:00:55;;;;;;;20.10;7.75;;;;;;;11.95;78.45;100062.52;4027004;86;21174;-82
2021/10/07 16:06:56;;;;;;;13.13;7.80;;;;;;;11.83;78.91;100061.23;4019591;86;21112;-84
2021/10/07 16:13:00;;;;;;;18.48;8.43;;;;;;;11.76;78.70;100074.20;4020623;86;22335;-83
2021/10/07 16:19:07;;;;;;;14.75;6.90;;;;;;;11.71;79.19;100073.14;4019924;86;21104;-83
2021/10/07 16:25:09;;;;;;;17.73;8.05;;;;;;;11.65;79.25;100084.13;4027476;86;21052;-83
2021/10/07 16:31:10;;;;;;;15.90;7.70;;;;;;;11.54;79.81;100091.27;4025360;86;21365;-83
2021/10/07 16:37:14;;;;;;;28.38;8.98;;;;;;;11.54;80.33;100089.91;4017117;86;21032;-84
2021/10/07 16:43:16;;;;;;;23.18;9.68;;;;;;;11.52;80.82;100085.38;4027736;86;21207;-82
2021/10/07 16:49:17;;;;;;;21.90;9.88;;;;;;;11.47;81.77;100080.15;4022284;86;21083;-83
2021/10/07 16:55:18;;;;;;;25.68;9.90;;;;;;;11.43;81.96;100083.39;4023850;86;21076;-84
2021/10/07 17:01:20;;;;;;;20.37;9.25;;;;;;;11.37;81.51;100093.60;4024207;86;21081;-82
2021/10/07 17:07:21;;;;;;;23.65;9.45;;;;;;;11.37;81.97;100095.75;4020660;86;21060;-83
2021/10/07 17:13:24;;;;;;;18.10;9.48;;;;;;;11.34;81.86;100098.42;4025402;86;21065;-83
2021/10/07 17:19:25;;;;;;;23.85;11.15;;;;;;;11.25;82.28;100099.95;3958912;88;21094;-84
2021/10/07 17:25:28;;;;;;;18.25;9.53;;;;;;;11.07;82.83;100089.89;4013510;86;21044;-84
2021/10/07 17:31:30;;;;;;;20.72;11.35;;;;;;;10.97;83.40;100099.20;4003780;87;21081;-84
2021/10/07 17:37:31;;;;;;;21.62;11.80;;;;;;;10.81;83.66;100093.70;4001868;87;21064;-83
2021/10/07 17:43:33;;;;;;;36.75;13.38;;;;;;;10.75;84.12;100105.25;4004997;87;21166;-84
2021/10/07 17:49:35;;;;;;;25.23;12.25;;;;;;;10.67;84.02;100104.83;4006705;87;21061;-84
2021/10/07 17:55:36;;;;;;;26.07;12.00;;;;;;;10.58;84.33;100115.94;4002560;87;21578;-83
2021/10/07 18:01:39;;;;;;;28.80;10.55;;;;;;;10.54;84.52;100108.18;4004076;87;21132;-82
2021/10/07 18:07:40;;;;;;;29.45;10.70;;;;;;;10.49;84.20;100111.75;4004727;86;21076;-83
2021/10/07 18:13:44;;;;;;;30.05;9.60;;;;;;;10.42;83.62;100106.86;4006056;87;21589;-83
2021/10/07 18:19:47;;;;;;;26.77;10.25;;;;;;;10.38;83.22;100101.84;3806998;89;9999723;-83
2021/10/07 18:25:48;;;;;;;27.22;10.78;;;;;;;10.34;82.93;100115.20;3980738;87;21640;-82
2021/10/07 18:31:50;;;;;;;31.00;11.25;;;;;;;10.26;82.82;100114.75;3982192;87;21072;-83
2021/10/07 18:37:55;;;;;;;35.50;12.35;;;;;;;10.11;82.70;100114.11;3976207;87;21082;-82
2021/10/07 18:43:55;;;;;;;41.98;11.70;;;;;;;9.99;82.74;100113.52;3974459;87;21083;-83
2021/10/07 18:49:57;;;;;;;31.30;12.07;;;;;;;9.85;82.69;100117.18;3969442;87;21171;-82
2021/10/07 18:55:58;;;;;;;33.25;12.80;;;;;;;9.73;82.71;100121.30;3958841;88;21099;-83
2021/10/07 19:02:00;;;;;;;38.20;13.85;;;;;;;9.62;82.71;100119.34;3950376;87;21084;-83
2021/10/07 19:08:03;;;;;;;43.95;12.58;;;;;;;9.51;82.76;100120.38;3971633;87;21126;-83
2021/10/07 19:14:05;;;;;;;36.68;12.13;;;;;;;9.38;82.89;100119.56;3975999;87;21106;-83
2021/10/07 19:20:09;;;;;;;41.30;12.45;;;;;;;9.26;82.92;100123.66;3864656;87;10000270;-83
2021/10/07 19:26:10;;;;;;;32.63;12.85;;;;;;;9.10;83.01;100127.35;3978767;87;21163;-83
2021/10/07 19:32:12;;;;;;;38.70;11.88;;;;;;;9.03;83.24;100121.10;3980469;87;21072;-84
2021/10/07 19:38:14;;;;;;;30.77;12.13;;;;;;;8.96;83.44;100121.40;3983583;87;21087;-82
2021/10/07 19:44:19;;;;;;;33.83;11.95;;;;;;;8.87;83.60;100127.52;3982995;87;21146;-83
2021/10/07 19:50:21;;;;;;;34.43;13.68;;;;;;;8.81;84.00;100126.95;3979823;87;21169;-82
2021/10/07 19:56:22;;;;;;;33.13;12.80;;;;;;;8.76;83.97;100133.16;3966719;87;21059;-84
2021/10/07 20:02:24;;;;;;;30.35;11.33;;;;;;;8.65;84.33;100132.78;3981666;87;21071;-83
2021/10/07 20:08:26;;;;;;;26.60;12.03;;;;;;;8.58;84.44;100130.37;3982628;87;21049;-82
2021/10/07 20:14:27;;;;;;;28.15;11.50;;;;;;;8.46;84.46;100135.19;3983108;87;21113;-83
2021/10/07 20:20:30;;;;;;;38.15;12.23;;;;;;;8.30;84.63;100131.45;3983271;87;21450;-83
2021/10/07 20:26:32;;;;;;;33.75;12.20;;;;;;;8.28;85.03;100132.37;3997568;87;21863;-82
2021/10/07 20:32:33;;;;;;;25.97;11.20;;;;;;;8.23;85.12;100127.66;4003516;87;21152;-83
2021/10/07 20:38:34;;;;;;;33.42;13.05;;;;;;;8.25;86.20;100138.50;4008943;87;21593;-83
2021/10/07 20:44:38;;;;;;;37.65;13.00;;;;;;;8.14;85.64;100137.26;4005964;87;21026;-82
2021/10/07 20:50:40;;;;;;;25.25;12.78;;;;;;;8.02;85.34;100152.15;4005440;87;21443;-83
2021/10/07 20:56:41;;;;;;;40.55;12.95;;;;;;;7.86;85.37;100149.78;4004996;87;21676;-83
2021/10/07 21:02:44;;;;;;;50.88;14.03;;;;;;;7.69;85.38;100145.20;4005535;87;22026;-83
2021/10/07 21:08:46;;;;;;;29.80;11.48;;;;;;;7.66;85.64;100150.49;4004956;88;21095;-83
2021/10/07 21:14:47;;;;;;;40.48;13.22;;;;;;;7.63;85.83;100144.34;4002628;87;21092;-82
2021/10/07 21:20:48;;;;;;;31.10;11.43;;;;;;;7.69;86.41;100147.11;4004349;86;21077;-82
2021/10/07 21:26:50;;;;;;;33.50;12.20;;;;;;;7.70;86.77;100151.45;3989551;87;21142;-82
2021/10/07 21:32:52;;;;;;;35.92;14.20;;;;;;;7.67;86.25;100148.80;3978689;87;21645;-82
2021/10/07 21:38:54;;;;;;;36.63;14.53;;;;;;;7.51;86.24;100160.59;3974375;87;21595;-82
2021/10/07 21:44:55;;;;;;;41.10;14.25;;;;;;;7.44;86.61;100167.09;3982214;87;21139;-83
2021/10/07 21:50:57;;;;;;;28.57;13.28;;;;;;;7.42;86.69;100168.78;3978040;87;21092;-84
2021/10/07 21:56:58;;;;;;;35.78;13.48;;;;;;;7.27;86.17;100171.23;3976789;87;21641;-83
2021/10/07 22:02:59;;;;;;;36.90;13.83;;;;;;;7.13;86.30;100163.27;3976694;88;21608;-83
2021/10/07 22:09:01;;;;;;;32.23;13.58;;;;;;;6.90;86.30;100169.23;3978355;87;21600;-83
2021/10/07 22:15:05;;;;;;;31.25;13.48;;;;;;;6.91;86.64;100166.73;3974854;87;21124;-82
2021/10/07 22:21:06;;;;;;;31.48;13.83;;;;;;;6.87;86.76;100169.88;3974317;86;21105;-82
2021/10/07 22:27:08;;;;;;;40.20;13.75;;;;;;;6.76;87.02;100178.94;3979891;87;21075;-83
2021/10/07 22:33:12;;;;;;;36.42;13.88;;;;;;;6.67;87.03;100180.06;3980947;87;21128;-82
2021/10/07 22:39:14;;;;;;;37.73;14.80;;;;;;;6.59;86.85;100180.30;3960476;88;21043;-83
2021/10/07 22:45:17;;;;;;;30.20;14.87;;;;;;;6.48;87.08;100176.84;3988452;87;21158;-83
2021/10/07 22:51:18;;;;;;;34.13;14.43;;;;;;;6.33;87.14;100174.02;3999276;87;21055;-83
2021/10/07 22:57:19;;;;;;;32.88;14.47;;;;;;;6.20;87.18;100177.13;3985321;87;21089;-83
2021/10/07 23:03:21;;;;;;;34.92;14.70;;;;;;;6.12;87.17;100184.70;3991900;87;21093;-83
2021/10/07 23:09:22;;;;;;;40.35;15.13;;;;;;;6.05;87.19;100184.39;3995397;87;21071;-83
2021/10/07 23:15:24;;;;;;;40.80;15.83;;;;;;;6.03;87.50;100188.52;3915341;89;21142;-82
2021/10/07 23:21:25;;;;;;;36.58;15.23;;;;;;;6.14;87.77;100190.64;3990743;87;21084;-82
2021/10/07 23:27:27;;;;;;;38.40;14.53;;;;;;;6.12;87.57;100186.64;4007954;87;21499;-82
2021/10/07 23:33:28;;;;;;;40.17;15.65;;;;;;;6.06;87.86;100188.69;4015749;86;21108;-82
2021/10/07 23:39:30;;;;;;;29.40;13.50;;;;;;;6.04;88.04;100199.66;4000348;87;21056;-82
2021/10/07 23:45:32;;;;;;;31.33;13.30;;;;;;;6.04;87.94;100190.14;4006828;86;21067;-82
2021/10/07 23:51:41;;;;;;;30.75;14.55;;;;;;;6.01;87.88;100189.41;3985464;86;21050;-83
2021/10/07 23:57:43;;;;;;;32.73;14.73;;;;;;;5.90;87.79;100189.46;4003277;87;21048;-82
